Time;durP1;ratioP1;P1;durP2;ratioP2;P2;SDS_P1;SDS_P2;PMS_P1;PMS_P2;Temp;Humidity;BMP_temperature;BMP_pressure;BME280_temperature;BME280_humidity;BME280_pressure;Samples;Min_cycle;Max_cycle;Signal;HPM_P1;HPM_P2
2022/07/05 04:09:21;;;;;;;;;;;;;;;21.92;100.00;97275.84;4231317;27;10382;-72
2022/07/05 04:11:23;;;;;;;;;;;;;;;22.18;100.00;97279.63;4213588;28;6299;-71
2022/07/05 04:13:45;;;;;;;;;;;;;;;22.41;100.00;97283.88;4211390;28;5632;-71
2022/07/05 04:15:48;;;;;;;;;;;;;;;22.56;99.51;97279.44;4214940;28;5678;-73
2022/07/05 04:17:52;;;;;;;;;;;;;;;22.69;98.83;97278.16;4198171;28;5799;-72
2022/07/05 04:19:55;;;;;;;;;;;;;;;22.80;98.32;97287.16;4196844;28;5749;-73
2022/07/05 04:21:58;;;;;;;;;;;;;;;22.88;97.48;97292.09;4197996;28;5724;-73
2022/07/05 04:24:01;;;;;;;;;;;;;;;22.98;97.00;97286.72;4198271;28;5711;-73
2022/07/05 04:26:06;;;;;;;;;;;;;;;23.05;97.02;97297.31;4215252;28;5640;-72
2022/07/05 04:28:09;;;;;;;;;;;;;;;23.08;96.31;97296.78;4197938;28;5731;-72
2022/07/05 04:30:12;;;;;;;;;;;;;;;23.14;96.35;97301.13;4198095;28;6507;-72
2022/07/05 04:32:15;;;;;;;;;;;;;;;23.18;96.29;97303.03;4198234;28;5715;-72
2022/07/05 04:34:18;;;;;;;;;;;;;;;23.20;95.60;97300.88;4209258;28;5686;-72
2022/07/05 04:36:21;;;;;;;;;;;;;;;23.22;95.73;97292.56;4212264;28;5849;-72
2022/07/05 04:38:24;;;;;;;;;;;;;;;23.23;95.47;97300.38;4197937;28;6049;-72
2022/07/05 04:40:27;;;;;;;;;;;;;;;23.27;94.94;97299.84;4197759;28;5711;-72
2022/07/05 04:42:31;;;;;;;;;;;;;;;23.30;94.87;97299.31;4206029;28;5703;-72
2022/07/05 04:44:34;;;;;;;;;;;;;;;23.33;94.63;97304.19;4214167;28;6376;-73
2022/07/05 04:46:37;;;;;;;;;;;;;;;23.39;94.23;97305.84;4209742;28;5711;-73
2022/07/05 04:48:40;;;;;;;;;;;;;;;23.41;93.57;97301.81;4210398;28;6557;-73
2022/07/05 04:50:43;;;;;;;;;;;;;;;23.42;93.33;97299.91;4214608;28;5706;-72
2022/07/05 04:52:46;;;;;;;;;;;;;;;23.44;93.53;97311.25;4214832;28;5726;-72
2022/07/05 04:54:49;;;;;;;;;;;;;;;23.42;93.34;97299.91;4214879;28;5686;-72
2022/07/05 04:56:52;;;;;;;;;;;;;;;23.41;93.31;97307.22;4214048;28;5701;-72
2022/07/05 04:58:56;;;;;;;;;;;;;;;23.42;93.04;97308.81;4205473;28;5716;-67
2022/07/05 05:00:59;;;;;;;;;;;;;;;23.39;92.69;97308.56;4205069;28;5730;-67
2022/07/05 05:03:02;;;;;;;;;;;;;;;23.37;93.01;97308.81;4214503;28;5706;-67
2022/07/05 05:05:06;;;;;;;;;;;;;;;23.39;92.66;97308.56;4211486;28;5678;-67
2022/07/05 05:07:09;;;;;;;;;;;;;;;23.40;91.74;97312.88;4201766;28;5885;-66
2022/07/05 05:09:11;;;;;;;;;;;;;;;23.38;91.81;97309.63;4184287;28;5710;-65
2022/07/05 05:11:14;;;;;;;;;;;;;;;23.38;92.13;97317.72;4169927;28;5669;-66
2022/07/05 05:13:17;;;;;;;;;;;;;;;23.39;91.49;97308.56;4182303;28;5651;-66
2022/07/05 05:15:22;;;;;;;;;;;;;;;23.41;91.46;97322.59;4181690;28;5717;-65
2022/07/05 05:17:24;;;;;;;;;;;;;;;23.39;90.78;97319.34;4182818;28;6332;-65
2022/07/05 05:19:27;;;;;;;;;;;;;;;23.44;90.67;97322.06;4185711;28;5656;-65
2022/07/05 05:21:30;;;;;;;;;;;;;;;23.45;90.47;97318.31;4178418;28;6335;-65
2022/07/05 05:23:33;;;;;;;;;;;;;;;23.46;90.11;97319.94;4186388;28;5754;-66
2022/07/05 05:25:36;;;;;;;;;;;;;;;23.47;90.23;97313.47;4174068;28;5702;-65
2022/07/05 05:27:44;;;;;;;;;;;;;;;23.48;89.78;97320.47;4172145;28;5975;-65
2022/07/05 05:29:50;;;;;;;;;;;;;;;23.47;89.53;97326.94;4185247;28;5751;-65
2022/07/05 05:31:56;;;;;;;;;;;;;;;23.45;89.27;97321.00;4185834;28;5663;-65
2022/07/05 05:33:59;;;;;;;;;;;;;;;23.44;89.39;97322.06;4166306;28;5761;-66
2022/07/05 05:36:02;;;;;;;;;;;;;;;23.43;89.10;97323.94;4183284;28;5734;-65
2022/07/05 05:38:05;;;;;;;;;;;;;;;23.46;88.39;97336.94;4183763;28;5551;-66
2022/07/05 05:40:09;;;;;;;;;;;;;;;23.48;88.45;97323.97;4182469;28;5817;-65
2022/07/05 05:42:12;;;;;;;;;;;;;;;23.51;88.03;97331.53;4184062;28;5666;-66
2022/07/05 05:44:15;;;;;;;;;;;;;;;23.53;87.45;97332.09;4185001;28;5650;-65
2022/07/05 05:46:18;;;;;;;;;;;;;;;23.60;87.36;97333.78;4165660;28;5749;-65
2022/07/05 05:48:24;;;;;;;;;;;;;;;23.59;87.20;97324.88;4176369;28;5764;-65
2022/07/05 05:50:28;;;;;;;;;;;;;;;23.60;87.38;97326.50;4169523;28;6102;-66
2022/07/05 05:52:31;;;;;;;;;;;;;;;23.66;87.29;97330.81;4151842;28;5868;-66
2022/07/05 05:54:34;;;;;;;;;;;;;;;23.78;86.53;97326.03;4169267;28;5761;-66
2022/07/05 05:56:38;;;;;;;;;;;;;;;23.92;86.35;97326.34;4182467;28;5824;-66
2022/07/05 05:58:41;;;;;;;;;;;;;;;24.04;85.80;97332.31;4183200;28;5642;-66
2022/07/05 06:00:48;;;;;;;;;;;;;;;24.16;85.56;97332.06;4172999;28;5657;-65
2022/07/05 06:02:51;;;;;;;;;;;;;;;24.28;85.06;97342.63;4169252;28;5079;-77
2022/07/05 06:04:56;;;;;;;;;;;;;;;24.44;84.82;97343.50;4180491;28;5761;-77
2022/07/05 06:06:59;;;;;;;;;;;;;;;24.58;84.30;97341.91;4181706;28;5643;-77
2022/07/05 06:09:02;;;;;;;;;;;;;;;24.73;83.63;97347.31;4168664;28;7774;-77
2022/07/05 06:11:05;;;;;;;;;;;;;;;24.83;83.40;97347.31;4169220;28;5756;-77
2022/07/05 06:13:10;;;;;;;;;;;;;;;24.77;83.34;97351.09;4151389;28;6587;-77
2022/07/05 06:15:12;;;;;;;;;;;;;;;24.72;83.44;97342.19;4168896;28;5694;-77
2022/07/05 06:17:15;;;;;;;;;;;;;;;24.68;83.31;97347.28;4183359;28;5642;-77
2022/07/05 06:19:18;;;;;;;;;;;;;;;24.72;83.22;97342.19;4167591;28;5813;-77
2022/07/05 06:21:22;;;;;;;;;;;;;;;24.78;83.08;97341.88;4184410;28;5792;-77
2022/07/05 06:23:25;;;;;;;;;;;;;;;24.81;82.75;97338.66;4185439;28;5090;-76
2022/07/05 06:25:29;;;;;;;;;;;;;;;24.75;82.52;97347.03;4167069;28;5932;-78
2022/07/05 06:27:32;;;;;;;;;;;;;;;24.75;82.09;97342.44;4184816;28;5639;-77
2022/07/05 06:29:35;;;;;;;;;;;;;;;24.85;81.75;97345.13;4185168;28;5079;-77
2022/07/05 06:31:38;;;;;;;;;;;;;;;24.97;81.56;97339.44;4185243;28;5651;-78
2022/07/05 06:33:40;;;;;;;;;;;;;;;25.07;81.17;97344.06;4173719;28;5713;-77
2022/07/05 06:35:44;;;;;;;;;;;;;;;25.14;80.68;97350.00;4169555;28;5736;-77
2022/07/05 06:37:52;;;;;;;;;;;;;;;25.18;80.22;97351.91;4167394;28;5796;-78
2022/07/05 06:39:55;;;;;;;;;;;;;;;25.23;80.25;97345.66;4167845;28;5764;-77
2022/07/05 06:41:59;;;;;;;;;;;;;;;25.28;79.94;97356.50;4184700;28;5753;-77
2022/07/05 06:44:02;;;;;;;;;;;;;;;25.33;79.42;97351.06;4184962;28;5646;-76
2022/07/05 06:46:25;;;;;;;;;;;;;;;25.34;79.07;97346.44;4183944;28;5105;-77
2022/07/05 06:48:28;;;;;;;;;;;;;;;25.36;78.62;97349.69;4185065;28;5643;-77
2022/07/05 06:50:33;;;;;;;;;;;;;;;25.40;78.71;97342.66;4184099;28;5635;-77
2022/07/05 06:52:35;;;;;;;;;;;;;;;25.45;78.37;97346.16;4184909;28;5649;-77
2022/07/05 06:54:40;;;;;;;;;;;;;;;25.52;77.97;97341.25;4185015;28;5658;-77
2022/07/05 06:56:50;;;;;;;;;;;;;;;25.65;77.44;97344.47;4185007;28;7093;-77
2022/07/05 06:59:13;;;;;;;;;;;;;;;25.73;77.05;97342.03;4174930;28;5665;-77
2022/07/05 07:01:36;;;;;;;;;;;;;;;25.83;76.68;97349.31;4181214;28;5639;-77
2022/07/05 07:03:39;;;;;;;;;;;;;;;25.82;76.64;97347.66;4177933;28;6471;-76
2022/07/05 07:06:02;;;;;;;;;;;;;;;25.68;76.38;97342.00;4182794;28;5677;-77
2022/07/05 07:10:29;;;;;;;;;;;;;;;25.60;75.56;97342.59;4183720;28;5639;-78
2022/07/05 07:12:34;;;;;;;;;;;;;;;25.57;75.49;97347.75;4184885;28;5654;-79
2022/07/05 07:14:37;;;;;;;;;;;;;;;25.46;75.41;97347.75;4184532;28;5647;-78
2022/07/05 07:16:40;;;;;;;;;;;;;;;25.37;75.39;97345.88;4184669;28;5755;-78
2022/07/05 07:18:44;;;;;;;;;;;;;;;25.32;75.10;97357.56;4184590;28;5090;-78
2022/07/05 07:21:09;;;;;;;;;;;;;;;25.25;74.58;97343.47;4184557;28;5713;-78
2022/07/05 07:23:16;;;;;;;;;;;;;;;25.22;74.71;97346.75;4184597;28;5654;-78
2022/07/05 07:25:23;;;;;;;;;;;;;;;25.19;74.53;97350.00;4184903;28;5086;-78
2022/07/05 07:27:27;;;;;;;;;;;;;;;25.18;74.03;97354.59;4184151;28;6332;-79
2022/07/05 07:29:31;;;;;;;;;;;;;;;25.16;74.05;97354.06;4183371;28;5830;-78
2022/07/05 07:31:36;;;;;;;;;;;;;;;25.15;73.67;97351.66;4182335;28;5671;-78
2022/07/05 07:33:39;;;;;;;;;;;;;;;25.15;73.44;97359.75;4174548;28;6507;-78
2022/07/05 07:35:47;;;;;;;;;;;;;;;25.14;73.08;97358.09;4182315;28;5078;-78
2022/07/05 07:37:50;;;;;;;;;;;;;;;25.16;73.06;97358.69;4184410;28;5777;-77
2022/07/05 07:39:53;;;;;;;;;;;;;;;25.20;72.73;97365.16;4184194;28;5631;-78
2022/07/05 07:41:56;;;;;;;;;;;;;;;25.24;72.36;97360.81;4166224;28;6750;-78
2022/07/05 07:44:01;;;;;;;;;;;;;;;25.25;71.92;97363.22;4166259;28;5746;-77
2022/07/05 07:46:04;;;;;;;;;;;;;;;25.27;71.89;97363.00;4184288;28;5642;-79
2022/07/05 07:48:07;;;;;;;;;;;;;;;25.27;71.56;97359.47;4166170;28;5765;-78
2022/07/05 07:50:10;;;;;;;;;;;;;;;25.24;71.46;97367.03;4184282;28;5770;-78
2022/07/05 07:52:14;;;;;;;;;;;;;;;25.21;71.28;97361.34;4182441;28;5634;-78
2022/07/05 07:54:17;;;;;;;;;;;;;;;25.23;71.20;97367.31;4183666;28;5823;-77
2022/07/05 07:56:21;;;;;;;;;;;;;;;25.23;70.92;97370.00;4181769;28;5671;-79
2022/07/05 07:58:26;;;;;;;;;;;;;;;25.26;70.57;97374.91;4177858;28;5869;-80
2022/07/05 08:00:31;;;;;;;;;;;;;;;25.27;70.28;97371.09;4163181;28;5820;-79
2022/07/05 08:02:35;;;;;;;;;;;;;;;25.32;70.29;97372.97;4177129;28;5820;-80
2022/07/05 08:04:39;;;;;;;;;;;;;;;25.34;69.79;97371.63;4168725;28;5095;-80
2022/07/05 08:06:43;;;;;;;;;;;;;;;25.38;69.61;97378.13;4180280;28;5773;-80
2022/07/05 08:08:47;;;;;;;;;;;;;;;25.39;69.54;97377.03;4190047;28;5793;-80
2022/07/05 08:10:50;;;;;;;;;;;;;;;25.39;69.24;97371.63;4197550;28;5864;-81
2022/07/05 08:12:53;;;;;;;;;;;;;;;25.44;68.94;97376.19;4197946;28;6478;-80
2022/07/05 08:15:01;;;;;;;;;;;;;;;25.46;68.84;97365.91;4197683;28;5793;-80
2022/07/05 08:17:08;;;;;;;;;;;;;;;25.51;68.50;97377.53;4194264;28;5851;-80
2022/07/05 08:21:38;;;;;;;;;;;;;;;25.51;68.12;97372.13;4196214;28;5789;-80
2022/07/05 08:23:45;;;;;;;;;;;;;;;25.45;68.01;97369.69;4194970;28;6497;-80
2022/07/05 08:25:48;;;;;;;;;;;;;;;25.41;68.05;97369.44;4197633;28;5801;-80
2022/07/05 08:27:51;;;;;;;;;;;;;;;25.39;67.60;97360.78;4197591;28;7749;-81
2022/07/05 08:29:54;;;;;;;;;;;;;;;25.38;67.57;97367.28;4197451;28;5784;-81
2022/07/05 08:31:58;;;;;;;;;;;;;;;25.39;67.38;97363.50;4197619;28;6514;-80
2022/07/05 08:34:03;;;;;;;;;;;;;;;25.39;66.85;97362.69;4183430;28;5757;-80
2022/07/05 08:36:07;;;;;;;;;;;;;;;25.39;66.81;97358.09;4196069;28;5751;-80
2022/07/05 08:38:12;;;;;;;;;;;;;;;25.38;66.77;97367.28;4181345;28;5818;-80
2022/07/05 08:40:17;;;;;;;;;;;;;;;25.36;66.50;97366.72;4181376;28;5805;-80
2022/07/05 08:42:20;;;;;;;;;;;;;;;25.33;66.51;97359.16;4194985;28;5796;-80
2022/07/05 08:44:24;;;;;;;;;;;;;;;25.31;66.18;97358.63;4198197;28;6487;-79
2022/07/05 08:46:31;;;;;;;;;;;;;;;25.30;66.39;97354.31;4198898;28;5796;-80
2022/07/05 08:48:41;;;;;;;;;;;;;;;25.27;66.18;97359.47;4193851;28;5792;-79
2022/07/05 08:50:48;;;;;;;;;;;;;;;25.31;65.73;97366.75;4199361;28;5796;-80
2022/07/05 08:53:00;;;;;;;;;;;;;;;25.33;65.53;97361.06;4200697;28;6521;-80
2022/07/05 08:55:03;;;;;;;;;;;;;;;25.36;65.48;97374.03;4200871;28;5268;-80
2022/07/05 08:57:06;;;;;;;;;;;;;;;25.35;65.08;97367.81;4199449;28;6515;-80
2022/07/05 08:59:15;;;;;;;;;;;;;;;25.38;64.96;97367.28;4189353;28;5816;-82
2022/07/05 09:01:18;;;;;;;;;;;;;;;25.40;64.73;97367.00;4188539;28;6654;-81
2022/07/05 09:03:26;;;;;;;;;;;;;;;25.41;64.48;97369.44;4184073;28;5809;-81
2022/07/05 09:05:34;;;;;;;;;;;;;;;25.44;64.32;97366.19;4188316;28;5825;-80
2022/07/05 09:07:42;;;;;;;;;;;;;;;25.43;64.39;97369.16;4187976;28;5796;-79
2022/07/05 09:09:48;;;;;;;;;;;;;;;25.42;64.16;97365.66;4187685;28;5761;-80
2022/07/05 09:11:52;;;;;;;;;;;;;;;25.42;63.98;97367.56;4188561;28;5816;-79
2022/07/05 09:14:23;;;;;;;;;;;;;;;25.42;64.05;97368.34;4188693;28;5758;-80
2022/07/05 09:16:32;;;;;;;;;;;;;;;25.44;63.73;97366.19;4170273;28;5894;-81
2022/07/05 09:18:42;;;;;;;;;;;;;;;25.42;63.44;97354.00;4170635;28;5859;-80
2022/07/05 09:20:46;;;;;;;;;;;;;;;25.46;63.68;97360.50;4188402;28;5122;-80
2022/07/05 09:22:58;;;;;;;;;;;;;;;25.46;63.16;97358.59;4188617;28;5651;-80
2022/07/05 09:25:14;;;;;;;;;;;;;;;25.50;62.92;97365.09;4170557;28;5915;-80
2022/07/05 09:27:18;;;;;;;;;;;;;;;25.54;62.97;97365.34;4188644;28;5885;-80
2022/07/05 09:29:22;;;;;;;;;;;;;;;25.59;62.79;97365.31;4188148;28;5808;-80
2022/07/05 09:31:49;;;;;;;;;;;;;;;25.64;62.72;97362.63;4188495;28;6455;-80
2022/07/05 09:34:01;;;;;;;;;;;;;;;25.70;62.56;97366.13;4188622;28;5861;-80
2022/07/05 09:36:04;;;;;;;;;;;;;;;25.74;62.21;97362.59;4188558;28;5738;-79
2022/07/05 09:38:19;;;;;;;;;;;;;;;25.73;61.90;97365.59;4187106;28;5777;-79
2022/07/05 09:40:25;;;;;;;;;;;;;;;25.72;62.08;97370.22;4188202;28;5749;-79
2022/07/05 09:42:28;;;;;;;;;;;;;;;25.74;61.95;97364.50;4187862;28;5745;-79
2022/07/05 09:44:31;;;;;;;;;;;;;;;25.76;61.95;97362.34;4186866;28;5121;-79
2022/07/05 09:46:34;;;;;;;;;;;;;;;25.74;61.90;97348.25;4186902;28;5766;-79
2022/07/05 09:48:37;;;;;;;;;;;;;;;25.74;61.65;97348.25;4185581;28;5750;-80
2022/07/05 09:50:45;;;;;;;;;;;;;;;25.73;61.36;97352.06;4187927;28;5804;-79
2022/07/05 09:53:06;;;;;;;;;;;;;;;25.73;61.15;97346.66;4186996;28;5634;-79
2022/07/05 09:55:16;;;;;;;;;;;;;;;25.77;60.83;97350.41;4187174;28;5745;-79
2022/07/05 09:57:26;;;;;;;;;;;;;;;25.82;60.74;97345.78;4188119;28;5766;-80
2022/07/05 09:59:30;;;;;;;;;;;;;;;25.90;60.64;97347.09;4168079;28;5119;-79
2022/07/05 10:01:36;;;;;;;;;;;;;;;25.96;60.48;97354.13;4187955;28;5685;-79
2022/07/05 10:03:52;;;;;;;;;;;;;;;26.00;60.14;97352.47;4187561;28;5889;-80
2022/07/05 10:06:10;;;;;;;;;;;;;;;26.02;60.02;97349.47;4188265;28;5752;-79
2022/07/05 10:08:14;;;;;;;;;;;;;;;25.99;59.90;97344.63;4187653;28;5668;-81
2022/07/05 10:10:20;;;;;;;;;;;;;;;26.00;59.62;97351.66;4188113;28;5742;-80
2022/07/05 10:12:24;;;;;;;;;;;;;;;25.99;59.40;97345.44;4188043;28;5862;-80
2022/07/05 10:14:28;;;;;;;;;;;;;;;26.00;59.41;97338.94;4187860;28;5745;-80
2022/07/05 10:16:31;;;;;;;;;;;;;;;26.03;59.30;97330.22;4180878;28;5757;-79
2022/07/05 10:18:37;;;;;;;;;;;;;;;26.06;59.31;97334.31;4171272;28;5661;-79
2022/07/05 10:20:44;;;;;;;;;;;;;;;26.06;59.15;97335.13;4171320;28;5904;-79
2022/07/05 10:22:47;;;;;;;;;;;;;;;26.07;58.63;97334.03;4171058;28;5783;-79
2022/07/05 10:24:53;;;;;;;;;;;;;;;26.04;58.58;97337.28;4171281;28;5820;-79
2022/07/05 10:26:59;;;;;;;;;;;;;;;26.03;58.44;97338.34;4171051;28;5669;-79
2022/07/05 10:29:03;;;;;;;;;;;;;;;26.03;58.07;97327.53;4170975;28;5744;-80
2022/07/05 10:31:08;;;;;;;;;;;;;;;26.04;58.10;97334.56;4170905;28;5748;-80
2022/07/05 10:33:14;;;;;;;;;;;;;;;26.03;57.69;97327.53;4170868;28;5759;-80
2022/07/05 10:35:19;;;;;;;;;;;;;;;26.03;57.64;97329.41;4152773;28;5884;-80
2022/07/05 10:37:28;;;;;;;;;;;;;;;26.00;57.47;97336.22;4170637;28;5678;-79
2022/07/05 10:39:33;;;;;;;;;;;;;;;25.99;56.91;97334.59;4171807;28;5870;-79
2022/07/05 10:41:38;;;;;;;;;;;;;;;26.02;56.74;97342.16;4178965;28;5737;-79
2022/07/05 10:43:43;;;;;;;;;;;;;;;26.04;56.83;97329.13;4187144;28;5761;-78
2022/07/05 10:45:49;;;;;;;;;;;;;;;26.07;56.49;97330.50;4187463;28;5729;-78
2022/07/05 10:48:15;;;;;;;;;;;;;;;26.08;56.44;97327.50;4187202;28;5750;-79
2022/07/05 10:50:18;;;;;;;;;;;;;;;26.10;56.44;97330.75;4169312;28;5907;-79
2022/07/05 10:52:25;;;;;;;;;;;;;;;26.13;56.13;97324.75;4187295;28;5781;-79
2022/07/05 10:54:28;;;;;;;;;;;;;;;26.16;55.99;97325.28;4169392;28;5845;-79
2022/07/05 10:56:31;;;;;;;;;;;;;;;26.17;55.76;97325.03;4186988;28;5654;-78
2022/07/05 10:58:46;;;;;;;;;;;;;;;26.12;55.51;97317.72;4186849;28;5762;-78
2022/07/05 11:00:48;;;;;;;;;;;;;;;26.11;55.70;97326.94;4187319;28;5749;-78
2022/07/05 11:03:07;;;;;;;;;;;;;;;26.12;55.40;97317.72;4188968;28;5844;-78
2022/07/05 11:05:10;;;;;;;;;;;;;;;26.14;55.28;97309.31;4156528;28;5873;-78
2022/07/05 11:07:13;;;;;;;;;;;;;;;26.13;55.08;97318.53;4168656;28;5880;-78
2022/07/05 11:09:20;;;;;;;;;;;;;;;26.16;55.16;97314.44;4169039;28;5680;-79
2022/07/05 11:11:25;;;;;;;;;;;;;;;26.18;54.65;97309.56;4170468;28;6138;-79
2022/07/05 11:13:38;;;;;;;;;;;;;;;26.19;54.28;97312.00;4152978;28;5113;-79
2022/07/05 11:16:22;;;;;;;;;;;;;;;26.20;54.47;97302.78;4171354;28;5661;-80
2022/07/05 11:18:25;;;;;;;;;;;;;;;26.24;54.04;97305.72;4171769;28;5744;-79
2022/07/05 11:20:31;;;;;;;;;;;;;;;26.26;54.31;97317.09;4172213;28;5765;-78
2022/07/05 11:22:35;;;;;;;;;;;;;;;26.31;53.81;97309.75;4171571;28;5760;-79
2022/07/05 11:24:38;;;;;;;;;;;;;;;26.33;53.77;97304.03;4183463;28;5745;-79
2022/07/05 11:26:43;;;;;;;;;;;;;;;26.34;53.54;97302.94;4189376;28;5683;-80
2022/07/05 11:28:47;;;;;;;;;;;;;;;26.37;53.53;97305.94;4187419;28;5749;-80
2022/07/05 11:31:00;;;;;;;;;;;;;;;26.38;53.64;97306.75;4187930;28;5733;-79
2022/07/05 11:33:27;;;;;;;;;;;;;;;26.39;53.53;97300.25;4171242;28;5162;-80
2022/07/05 11:35:33;;;;;;;;;;;;;;;26.43;53.34;97304.00;4169610;28;5856;-80
2022/07/05 11:37:38;;;;;;;;;;;;;;;26.49;53.26;97294.72;4188814;28;5773;-80
2022/07/05 11:40:33;;;;;;;;;;;;;;;26.60;52.82;97306.31;4185854;28;5804;-79
2022/07/05 11:42:39;;;;;;;;;;;;;;;26.65;52.58;97314.41;4188874;28;5736;-80
2022/07/05 11:44:45;;;;;;;;;;;;;;;26.63;52.83;97301.16;4186549;28;5741;-80
2022/07/05 11:46:57;;;;;;;;;;;;;;;26.64;52.37;97308.19;4184711;28;5745;-78
2022/07/05 11:49:09;;;;;;;;;;;;;;;26.66;52.46;97295.16;4187291;28;5824;-78
2022/07/05 11:51:15;;;;;;;;;;;;;;;26.69;52.10;97299.19;4169279;28;5742;-78
2022/07/05 11:53:27;;;;;;;;;;;;;;;26.74;52.11;97301.06;4186881;28;5749;-79
2022/07/05 11:55:55;;;;;;;;;;;;;;;26.76;51.89;97302.38;4187140;28;5741;-78
2022/07/05 11:57:59;;;;;;;;;;;;;;;26.75;51.79;97294.53;4188166;28;5489;-79
2022/07/05 12:00:02;;;;;;;;;;;;;;;26.73;51.83;97288.56;4175455;28;5748;-79
2022/07/05 12:02:06;;;;;;;;;;;;;;;26.74;51.84;97285.59;4153153;28;5951;-79
2022/07/05 12:04:09;;;;;;;;;;;;;;;26.75;51.80;97294.53;4169647;28;5803;-78
2022/07/05 12:06:14;;;;;;;;;;;;;;;26.76;51.87;97296.97;4177742;28;5090;-78
2022/07/05 12:08:21;;;;;;;;;;;;;;;26.79;51.50;97296.38;4178276;28;5758;-78
2022/07/05 12:13:06;;;;;;;;;;;;;;;26.80;51.26;97286.34;4198776;28;5710;-79
2022/07/05 12:15:12;;;;;;;;;;;;;;;26.78;51.05;97289.34;4198590;28;5807;-79
2022/07/05 12:17:18;;;;;;;;;;;;;;;26.76;51.11;97279.88;4198189;28;5796;-79
2022/07/05 12:19:27;;;;;;;;;;;;;;;26.76;51.11;97282.59;4199187;28;5915;-79
2022/07/05 12:21:30;;;;;;;;;;;;;;;26.76;51.14;97288.03;4201249;28;5788;-80
2022/07/05 12:23:35;;;;;;;;;;;;;;;26.76;50.95;97277.16;4201263;28;5844;-80
2022/07/05 12:25:39;;;;;;;;;;;;;;;26.78;50.60;97277.69;4200776;28;5905;-80
2022/07/05 12:27:44;;;;;;;;;;;;;;;26.76;50.63;97275.25;4199527;28;5758;-80
2022/07/05 12:29:47;;;;;;;;;;;;;;;26.78;50.60;97274.97;4200718;28;5789;-80
2022/07/05 12:32:00;;;;;;;;;;;;;;;26.77;50.49;97282.31;4201171;28;5841;-80
2022/07/05 12:34:21;;;;;;;;;;;;;;;26.77;50.49;97279.59;4191313;28;5794;-80
2022/07/05 12:36:25;;;;;;;;;;;;;;;26.81;50.57;97286.06;4184496;28;5853;-80
2022/07/05 12:38:30;;;;;;;;;;;;;;;26.81;50.20;97277.09;4184550;28;6535;-80
2022/07/05 12:40:34;;;;;;;;;;;;;;;26.81;50.14;97286.06;4183002;28;5752;-80
2022/07/05 12:42:40;;;;;;;;;;;;;;;26.81;49.81;97285.25;4184826;28;5810;-80
2022/07/05 12:44:43;;;;;;;;;;;;;;;26.82;50.06;97286.88;4183761;28;5927;-80
2022/07/05 12:46:46;;;;;;;;;;;;;;;26.83;49.93;97286.56;4184230;28;5814;-79
2022/07/05 12:48:54;;;;;;;;;;;;;;;26.83;49.80;97278.44;4184280;28;5810;-80
2022/07/05 12:50:59;;;;;;;;;;;;;;;26.86;49.78;97282.50;4184147;28;7729;-79
2022/07/05 12:58:03;;;;;;;;;;;;;;;26.88;49.45;97274.88;4184267;28;5813;-79
2022/07/05 13:00:10;;;;;;;;;;;;;;;26.90;49.40;97278.13;4186415;28;5724;-79
2022/07/05 13:02:13;;;;;;;;;;;;;;;26.92;49.16;97281.34;4196905;28;5693;-79
2022/07/05 13:04:18;;;;;;;;;;;;;;;26.92;48.96;97279.44;4201402;28;5804;-80
2022/07/05 13:06:22;;;;;;;;;;;;;;;26.94;49.14;97279.16;4200646;28;5781;-80
2022/07/05 13:08:28;;;;;;;;;;;;;;;26.95;48.93;97269.91;4183505;28;5827;-80
2022/07/05 13:10:32;;;;;;;;;;;;;;;26.96;48.97;97276.97;4167503;28;5768;-81
2022/07/05 13:12:42;;;;;;;;;;;;;;;26.98;48.55;97269.34;4167473;28;5693;-80
2022/07/05 13:14:47;;;;;;;;;;;;;;;26.97;48.78;97271.25;4167217;28;6545;-80
2022/07/05 13:16:50;;;;;;;;;;;;;;;26.99;48.79;97270.97;4167355;28;5854;-80
2022/07/05 13:18:53;;;;;;;;;;;;;;;26.99;49.00;97270.97;4167373;28;5201;-80
2022/07/05 13:20:57;;;;;;;;;;;;;;;26.99;48.57;97262.84;4167270;28;5676;-80
2022/07/05 13:23:01;;;;;;;;;;;;;;;27.01;48.48;97266.06;4167273;28;5768;-80
2022/07/05 13:25:04;;;;;;;;;;;;;;;27.04;48.27;97262.81;4149461;28;5916;-80
2022/07/05 13:27:08;;;;;;;;;;;;;;;27.04;48.32;97267.41;4148919;28;5906;-80
2022/07/05 13:29:11;;;;;;;;;;;;;;;27.02;48.18;97262.28;4169425;28;5757;-81
2022/07/05 13:31:14;;;;;;;;;;;;;;;27.04;48.18;97259.28;4176262;28;5692;-80
2022/07/05 13:33:25;;;;;;;;;;;;;;;27.04;48.23;97270.94;4180196;28;5852;-79
2022/07/05 13:35:33;;;;;;;;;;;;;;;27.06;48.11;97274.16;4182683;28;6446;-79
2022/07/05 13:37:36;;;;;;;;;;;;;;;27.06;48.22;97266.03;4183561;28;5789;-80
2022/07/05 13:39:41;;;;;;;;;;;;;;;27.06;48.36;97271.47;4184624;28;5820;-80
2022/07/05 13:41:43;;;;;;;;;;;;;;;27.05;48.19;97264.41;4185987;28;5662;-80
2022/07/05 13:43:47;;;;;;;;;;;;;;;27.05;48.32;97267.13;4165485;28;5988;-79
2022/07/05 13:45:50;;;;;;;;;;;;;;;27.06;48.18;97266.03;4165921;28;5856;-79
2022/07/05 13:47:53;;;;;;;;;;;;;;;27.07;48.38;97269.53;4167189;28;5878;-80
2022/07/05 13:52:13;;;;;;;;;;;;;;;27.04;48.45;97268.22;4184012;28;5921;-80
2022/07/05 13:54:16;;;;;;;;;;;;;;;27.05;48.57;97264.41;4175822;28;6035;-80
2022/07/05 13:56:21;;;;;;;;;;;;;;;27.08;48.35;97263.88;4170614;28;5854;-79
2022/07/05 13:58:24;;;;;;;;;;;;;;;27.12;48.32;97253.22;4186640;28;5654;-80
2022/07/05 14:00:27;;;;;;;;;;;;;;;27.10;48.24;97267.09;4171980;28;7589;-80
2022/07/05 14:02:30;;;;;;;;;;;;;;;27.12;48.31;97262.19;4169568;28;5764;-80
2022/07/05 14:04:33;;;;;;;;;;;;;;;27.13;48.26;97269.22;4180170;28;5753;-81
2022/07/05 14:06:37;;;;;;;;;;;;;;;27.14;48.05;97273.53;4183504;28;6451;-81
2022/07/05 14:08:42;;;;;;;;;;;;;;;27.15;48.09;97258.88;4190006;28;5722;-81
2022/07/05 14:10:45;;;;;;;;;;;;;;;27.15;48.02;97258.88;4199346;28;5738;-81
2022/07/05 14:12:49;;;;;;;;;;;;;;;27.15;47.96;97253.44;4199553;28;5751;-80
2022/07/05 14:14:52;;;;;;;;;;;;;;;27.14;47.91;97254.56;4199035;28;5739;-81
2022/07/05 14:16:55;;;;;;;;;;;;;;;27.18;47.73;97252.91;4194485;28;5729;-81
2022/07/05 14:18:58;;;;;;;;;;;;;;;27.20;47.70;97249.88;4183049;28;5794;-79
2022/07/05 14:21:01;;;;;;;;;;;;;;;27.21;47.55;97255.03;4185107;28;5829;-81
2022/07/05 14:23:04;;;;;;;;;;;;;;;27.25;47.31;97252.53;4193880;28;6489;-80
2022/07/05 14:25:08;;;;;;;;;;;;;;;27.28;47.39;97243.81;4189845;28;5730;-79
2022/07/05 14:27:11;;;;;;;;;;;;;;;27.28;47.13;97247.31;4179340;28;5870;-80
2022/07/05 14:29:15;;;;;;;;;;;;;;;27.27;47.28;97245.72;4178077;28;5868;-80
2022/07/05 14:31:18;;;;;;;;;;;;;;;27.30;47.07;97248.97;4197686;28;5731;-80
2022/07/05 14:33:22;;;;;;;;;;;;;;;27.30;47.01;97249.78;4188624;28;5744;-80
2022/07/05 14:35:25;;;;;;;;;;;;;;;27.28;46.88;97241.91;4186572;28;5745;-81
2022/07/05 14:37:28;;;;;;;;;;;;;;;27.28;46.79;97241.91;4164176;28;5855;-82
2022/07/05 14:39:31;;;;;;;;;;;;;;;27.26;46.80;97244.09;4194687;28;5734;-81
2022/07/05 14:41:34;;;;;;;;;;;;;;;27.25;46.61;97245.19;4197626;28;5752;-80
2022/07/05 14:43:37;;;;;;;;;;;;;;;27.26;46.68;97243.28;4197786;28;5801;-81
2022/07/05 14:45:41;;;;;;;;;;;;;;;27.23;46.57;97238.44;4178641;28;5837;-80
2022/07/05 14:47:44;;;;;;;;;;;;;;;27.25;46.63;97239.78;4191696;28;5741;-81
2022/07/05 14:49:47;;;;;;;;;;;;;;;27.27;46.46;97245.72;4194381;28;6455;-81
2022/07/05 14:51:50;;;;;;;;;;;;;;;27.27;46.39;97240.28;4174519;28;5906;-81
2022/07/05 14:53:53;;;;;;;;;;;;;;;27.26;46.32;97235.94;4198071;28;5723;-81
2022/07/05 14:55:56;;;;;;;;;;;;;;;27.30;46.27;97238.13;4198119;28;5849;-81
2022/07/05 14:58:02;;;;;;;;;;;;;;;27.31;46.19;97240.53;4192390;28;5760;-78
2022/07/05 15:00:07;;;;;;;;;;;;;;;27.32;46.05;97235.91;4179300;28;5891;-80
2022/07/05 15:02:14;;;;;;;;;;;;;;;27.33;46.13;97232.09;4198894;28;6341;-81
2022/07/05 15:04:17;;;;;;;;;;;;;;;27.33;46.12;97229.38;4179807;28;7752;-81
2022/07/05 15:06:20;;;;;;;;;;;;;;;27.33;46.19;97226.66;4197918;28;5727;-81
2022/07/05 15:08:25;;;;;;;;;;;;;;;27.33;46.00;97223.94;4189024;28;6443;-80
2022/07/05 15:10:28;;;;;;;;;;;;;;;27.30;46.18;97224.53;4181678;28;6568;-81
2022/07/05 15:12:31;;;;;;;;;;;;;;;27.28;46.10;97224.81;4181630;28;5738;-81
2022/07/05 15:14:34;;;;;;;;;;;;;;;27.26;46.12;97225.09;4181543;28;5729;-80
2022/07/05 15:16:37;;;;;;;;;;;;;;;27.27;46.21;97218.56;4178312;28;5811;-81
2022/07/05 15:18:41;;;;;;;;;;;;;;;27.24;46.08;97216.44;4174899;28;5863;-81
2022/07/05 15:20:45;;;;;;;;;;;;;;;27.26;46.23;97214.25;4181843;28;5909;-81
2022/07/05 15:22:48;;;;;;;;;;;;;;;27.27;46.16;97224.00;4181878;28;5741;-80
2022/07/05 15:24:51;;;;;;;;;;;;;;;27.26;46.16;97219.66;4180480;28;5769;-81
2022/07/05 15:26:54;;;;;;;;;;;;;;;27.24;46.00;97213.72;4174808;28;5766;-81